Time;durP1;ratioP1;P1;durP2;ratioP2;P2;SDS_P1;SDS_P2;PMS_P1;PMS_P2;Temp;Humidity;BMP_temperature;BMP_pressure;BME280_temperature;BME280_humidity;BME280_pressure;Samples;Min_cycle;Max_cycle;Signal;HPM_P1;HPM_P2
2023/02/18 00:01:30;;;;;;;48.88;22.38;;;;;;;9.00;100.00;102046.22;5133100;27;20055;-62
2023/02/18 00:03:59;;;;;;;50.47;23.65;;;;;;;8.95;100.00;102036.75;5126659;27;20047;-62
2023/02/18 00:06:29;;;;;;;50.15;23.95;;;;;;;8.89;100.00;102030.88;5125864;27;20393;-62
2023/02/18 00:09:00;;;;;;;56.95;23.42;;;;;;;8.88;100.00;102022.16;5137620;27;20041;-61
2023/02/18 00:11:31;;;;;;;49.65;23.40;;;;;;;8.93;100.00;102025.47;5135652;27;20447;-61
2023/02/18 00:14:02;;;;;;;49.75;22.30;;;;;;;8.93;100.00;102021.97;5137060;27;20043;-61
2023/02/18 00:16:31;;;;;;;54.75;23.98;;;;;;;8.94;100.00;102019.31;5136092;27;20050;-62
2023/02/18 00:19:01;;;;;;;51.95;23.75;;;;;;;8.98;100.00;102016.56;5134635;27;20819;-62
2023/02/18 00:21:30;;;;;;;56.67;23.40;;;;;;;8.95;100.00;102000.00;5135914;27;20079;-62
2023/02/18 00:23:58;;;;;;;60.33;26.15;;;;;;;8.94;100.00;102000.94;5135594;27;20043;-62
2023/02/18 00:26:27;;;;;;;47.67;24.02;;;;;;;8.94;100.00;102015.81;5135559;27;20043;-62
2023/02/18 00:28:55;;;;;;;57.08;25.67;;;;;;;8.92;100.00;102015.88;5135559;27;20043;-62
2023/02/18 00:31:28;;;;;;;59.85;24.42;;;;;;;8.93;100.00;102011.47;5135478;27;20088;-62
2023/02/18 00:33:57;;;;;;;57.55;24.90;;;;;;;8.94;100.00;102016.69;5136213;27;20059;-62
2023/02/18 00:36:26;;;;;;;53.08;24.63;;;;;;;9.04;100.00;102013.69;5135140;27;20478;-62
2023/02/18 00:38:58;;;;;;;57.08;25.35;;;;;;;8.93;100.00;102009.72;5117831;27;20634;-53
2023/02/18 00:41:28;;;;;;;58.78;24.60;;;;;;;8.90;100.00;102011.63;5120087;27;20051;-52
2023/02/18 00:43:56;;;;;;;50.55;24.70;;;;;;;9.03;100.00;102001.50;5133408;27;20061;-54
2023/02/18 00:46:27;;;;;;;61.47;26.48;;;;;;;8.94;100.00;101994.84;5131553;27;20141;-53
2023/02/18 00:48:55;;;;;;;56.42;24.52;;;;;;;8.88;100.00;101988.06;5132448;27;20096;-53
2023/02/18 00:51:25;;;;;;;61.38;25.05;;;;;;;8.91;100.00;101985.31;5131944;27;20047;-53
2023/02/18 00:53:53;;;;;;;51.40;23.73;;;;;;;8.88;100.00;101980.19;5131365;27;20434;-53
2023/02/18 00:56:21;;;;;;;58.08;26.17;;;;;;;8.84;100.00;101972.53;5134140;27;20088;-51
2023/02/18 00:58:50;;;;;;;56.47;24.48;;;;;;;8.84;100.00;101968.13;5135023;27;20035;-55
2023/02/18 01:01:19;;;;;;;57.35;24.40;;;;;;;8.85;100.00;101967.22;5124231;27;20122;-62
2023/02/18 01:03:49;;;;;;;50.63;23.45;;;;;;;8.86;100.00;101968.03;5116555;27;20548;-62
2023/02/18 01:06:17;;;;;;;54.80;24.98;;;;;;;8.88;100.00;101977.56;5120239;27;20075;-62
2023/02/18 01:08:46;;;;;;;57.45;26.30;;;;;;;8.86;100.00;101978.53;5132520;27;20470;-54
2023/02/18 01:11:14;;;;;;;55.38;24.67;;;;;;;8.88;100.00;101979.34;5134157;27;20111;-62
2023/02/18 01:13:42;;;;;;;56.53;25.30;;;;;;;8.90;100.00;101975.75;5135302;27;20431;-54
2023/02/18 01:16:11;;;;;;;49.85;23.05;;;;;;;8.94;100.00;101969.47;5135088;27;20047;-54
2023/02/18 01:18:41;;;;;;;53.30;24.63;;;;;;;8.89;100.00;101968.78;5133157;27;20035;-55
2023/02/18 01:21:11;;;;;;;49.08;24.00;;;;;;;8.91;100.00;101972.19;5132786;27;20074;-62
2023/02/18 01:23:41;;;;;;;50.47;23.23;;;;;;;8.90;100.00;101980.13;5134944;27;20042;-54
2023/02/18 01:26:11;;;;;;;46.97;22.77;;;;;;;8.91;100.00;101979.22;5134754;27;20035;-62
2023/02/18 01:28:39;;;;;;;51.00;21.63;;;;;;;9.00;100.00;101970.13;5133935;27;20088;-62
2023/02/18 01:31:10;;;;;;;50.35;24.80;;;;;;;8.96;100.00;101967.63;5134179;27;20057;-55
2023/02/18 01:33:39;;;;;;;53.22;24.52;;;;;;;8.95;100.00;101963.28;5134465;27;20043;-62
2023/02/18 01:36:08;;;;;;;47.53;24.33;;;;;;;8.94;100.00;101964.22;5133478;27;20051;-62
2023/02/18 01:38:39;;;;;;;48.50;23.75;;;;;;;8.94;100.00;101966.84;5133375;27;20088;-62
2023/02/18 01:41:07;;;;;;;50.25;24.30;;;;;;;8.92;100.00;101952.91;5131753;27;20047;-54
2023/02/18 01:43:36;;;;;;;46.70;24.15;;;;;;;8.91;100.00;101951.19;5118156;27;20043;-55
2023/02/18 01:46:14;;;;;;;52.38;24.40;;;;;;;8.95;100.00;101957.19;5131122;27;20043;-62
2023/02/18 01:48:45;;;;;;;44.25;24.20;;;;;;;9.00;100.00;101949.13;5133090;27;20051;-62
2023/02/18 01:51:19;;;;;;;51.07;25.03;;;;;;;9.00;100.00;101944.75;5131027;27;20042;-54
2023/02/18 01:53:53;;;;;;;62.08;26.27;;;;;;;8.97;100.00;101944.84;5129879;27;20035;-54
2023/02/18 01:56:26;;;;;;;58.70;27.33;;;;;;;8.98;100.00;101940.47;5119769;27;20110;-53
2023/02/18 01:58:56;;;;;;;57.08;26.20;;;;;;;8.99;100.00;101934.31;5114808;27;20055;-62
2023/02/18 02:01:26;;;;;;;61.65;27.92;;;;;;;8.98;100.00;101930.81;5127358;27;20413;-62
2023/02/18 02:03:55;;;;;;;57.70;27.60;;;;;;;8.95;100.00;101933.56;5121851;27;20043;-51
2023/02/18 02:06:25;;;;;;;62.72;26.80;;;;;;;8.96;100.00;101938.75;5118043;27;20122;-53
2023/02/18 02:08:58;;;;;;;57.95;26.23;;;;;;;8.95;100.00;101925.69;5114116;27;20085;-54
2023/02/18 02:11:55;;;;;;;60.05;28.77;;;;;;;8.97;100.00;101918.59;5120528;27;20046;-62
2023/02/18 02:14:43;;;;;;;54.83;26.08;;;;;;;8.96;100.00;101912.53;5117146;27;20043;-52
2023/02/18 02:17:20;;;;;;;71.00;30.23;;;;;;;8.93;100.00;101911.78;5119084;27;20047;-62
2023/02/18 02:20:28;;;;;;;65.22;29.75;;;;;;;8.94;100.00;101908.25;5115288;27;20562;-61
2023/02/18 02:23:38;;;;;;;68.57;28.98;;;;;;;8.95;100.00;101895.06;5089019;27;20544;-62
2023/02/18 02:26:49;;;;;;;67.38;28.40;;;;;;;8.96;100.00;101888.91;5118360;27;20042;-55
2023/02/18 02:29:58;;;;;;;64.03;29.55;;;;;;;8.98;100.00;101885.38;5112650;28;20047;-62
2023/02/18 02:32:47;;;;;;;70.37;28.40;;;;;;;8.98;100.00;101874.88;5113191;27;20395;-61
2023/02/18 02:35:23;;;;;;;74.45;30.50;;;;;;;8.95;100.00;101853.09;5112877;28;20521;-61
2023/02/18 02:37:59;;;;;;;70.13;30.38;;;;;;;8.96;100.00;101860.03;5112669;28;20513;-54
2023/02/18 02:40:35;;;;;;;63.45;30.30;;;;;;;8.98;100.00;101856.50;5111988;28;20043;-61
2023/02/18 02:43:12;;;;;;;71.72;31.58;;;;;;;8.99;100.00;101848.56;5118288;27;20039;-54
2023/02/18 02:45:52;;;;;;;69.47;30.50;;;;;;;9.02;100.00;101844.97;5131354;27;20043;-60
2023/02/18 02:48:28;;;;;;;74.93;31.40;;;;;;;9.06;100.00;101841.28;5131238;27;20047;-60
2023/02/18 02:51:06;;;;;;;71.15;30.20;;;;;;;9.05;100.00;101839.56;5131465;28;20103;-60
2023/02/18 02:53:36;;;;;;;73.90;31.67;;;;;;;9.07;100.00;101832.50;5131070;27;20096;-60
2023/02/18 02:56:05;;;;;;;70.45;29.15;;;;;;;9.05;100.00;101810.72;5131054;28;20054;-60
2023/02/18 02:58:33;;;;;;;69.20;31.25;;;;;;;9.05;100.00;101805.47;5133487;28;20081;-61
2023/02/18 03:01:16;;;;;;;74.32;31.70;;;;;;;9.11;100.00;101802.59;5112347;28;20048;-61
2023/02/18 03:03:59;;;;;;;;;;;;;;;9.12;100.00;101805.16;5111248;28;20043;-61
2023/02/18 03:06:43;;;;;;;75.57;31.88;;;;;;;9.12;100.00;101791.16;5112748;28;19920;-61
2023/02/18 03:09:22;;;;;;;75.65;29.77;;;;;;;9.21;100.00;101792.53;5113069;28;20043;-61
2023/02/18 03:11:58;;;;;;;85.88;30.67;;;;;;;9.15;100.00;101780.53;5112480;28;20058;-61
2023/02/18 03:14:30;;;;;;;84.18;30.15;;;;;;;9.13;100.00;101775.38;5119591;28;20049;-61
2023/02/18 03:17:05;;;;;;;86.55;31.92;;;;;;;9.16;100.00;101771.72;5112254;28;20541;-61
2023/02/18 03:19:38;;;;;;;72.95;29.65;;;;;;;9.20;100.00;101765.41;5116923;28;20531;-61
2023/02/18 03:22:12;;;;;;;76.70;30.17;;;;;;;9.20;100.00;101764.56;5118642;28;20044;-54
2023/02/18 03:24:43;;;;;;;81.03;31.40;;;;;;;9.23;100.00;101756.56;5117579;27;20114;-52
2023/02/18 03:27:15;;;;;;;76.90;31.25;;;;;;;9.22;100.00;101753.09;5129781;27;20486;-54
2023/02/18 03:29:46;;;;;;;72.65;28.52;;;;;;;9.26;100.00;101752.03;5132621;27;20055;-54
2023/02/18 03:32:18;;;;;;;70.30;28.35;;;;;;;9.24;100.00;101748.63;5121748;27;20035;-53
2023/02/18 03:34:51;;;;;;;64.35;28.42;;;;;;;9.23;100.00;101741.69;5121424;27;20071;-55
2023/02/18 03:37:22;;;;;;;64.97;25.67;;;;;;;9.23;100.00;101740.81;5115540;27;20043;-54
2023/02/18 03:39:55;;;;;;;52.33;23.75;;;;;;;9.26;100.00;101744.16;5112009;27;20047;-54
2023/02/18 03:42:26;;;;;;;52.72;23.67;;;;;;;9.33;100.00;101723.72;5130532;27;20489;-54
2023/02/18 03:44:55;;;;;;;49.75;21.10;;;;;;;9.31;100.00;101733.44;5133392;27;20039;-55
2023/02/18 03:47:24;;;;;;;47.83;21.42;;;;;;;9.34;100.00;101721.94;5132861;27;20489;-54
2023/02/18 03:49:52;;;;;;;49.92;19.85;;;;;;;9.40;100.00;101721.69;5129294;27;20035;-55
2023/02/18 03:52:22;;;;;;;37.38;17.83;;;;;;;9.42;100.00;101720.69;5125943;27;20040;-54
2023/02/18 03:54:50;;;;;;;42.10;18.73;;;;;;;9.36;100.00;101713.06;5122101;27;20557;-54
2023/02/18 03:57:18;;;;;;;39.50;18.05;;;;;;;9.35;100.00;101700.88;5129307;27;20053;-54
2023/02/18 03:59:46;;;;;;;37.03;17.02;;;;;;;9.32;100.00;101697.56;5135775;27;20073;-53
2023/02/18 04:02:14;;;;;;;39.70;17.73;;;;;;;9.32;100.00;101698.41;5132543;27;20043;-53
2023/02/18 04:04:43;;;;;;;37.25;17.13;;;;;;;9.35;100.00;101692.16;5132429;27;20050;-54
2023/02/18 04:07:11;;;;;;;37.97;17.17;;;;;;;9.40;100.00;101690.16;5134026;27;20043;-54
2023/02/18 04:09:40;;;;;;;39.90;17.58;;;;;;;9.37;100.00;101680.66;5133740;27;20043;-54
2023/02/18 04:12:09;;;;;;;40.35;18.45;;;;;;;9.37;100.00;101680.66;5131345;27;20047;-55
2023/02/18 04:14:37;;;;;;;40.70;18.52;;;;;;;9.36;100.00;101678.09;5132456;27;20118;-54
2023/02/18 04:17:05;;;;;;;38.88;18.15;;;;;;;9.38;100.00;101666.63;5132541;27;20493;-55
2023/02/18 04:19:33;;;;;;;42.58;19.75;;;;;;;9.39;100.00;101665.66;5136031;27;20051;-54
2023/02/18 04:22:03;;;;;;;42.75;19.40;;;;;;;9.37;100.00;101664.91;5136014;27;20043;-56
2023/02/18 04:24:31;;;;;;;42.80;19.27;;;;;;;9.38;100.00;101671.88;5132367;27;20035;-55
2023/02/18 04:27:01;;;;;;;45.67;19.02;;;;;;;9.38;100.00;101668.38;5131326;27;20051;-56
2023/02/18 04:29:29;;;;;;;42.28;18.77;;;;;;;9.36;100.00;101672.84;5128961;27;20043;-55
2023/02/18 04:32:00;;;;;;;36.60;17.70;;;;;;;9.36;100.00;101667.59;5121317;27;20036;-55
2023/02/18 04:34:29;;;;;;;34.67;16.20;;;;;;;9.35;100.00;101666.75;5119412;27;20055;-55
2023/02/18 04:36:57;;;;;;;31.33;14.20;;;;;;;9.36;100.00;101671.06;5117456;27;20047;-55
2023/02/18 04:39:25;;;;;;;30.35;12.75;;;;;;;9.36;100.00;101662.34;5124663;27;20166;-55
2023/02/18 04:41:53;;;;;;;30.48;13.70;;;;;;;9.35;100.00;101658.03;5115496;27;20035;-55
2023/02/18 04:44:23;;;;;;;27.50;11.95;;;;;;;9.36;100.00;101659.72;5132138;27;20089;-55
2023/02/18 04:46:51;;;;;;;27.88;12.93;;;;;;;9.34;100.00;101653.69;5123453;27;20043;-54
2023/02/18 04:49:19;;;;;;;25.25;10.88;;;;;;;9.37;100.00;101649.16;5118829;27;20039;-54
2023/02/18 04:51:47;;;;;;;22.67;10.55;;;;;;;9.34;100.00;101632.69;5121717;27;20047;-53
2023/02/18 04:54:15;;;;;;;21.88;10.15;;;;;;;9.32;100.00;101643.25;5117054;27;20517;-55
2023/02/18 04:56:43;;;;;;;20.88;9.02;;;;;;;9.34;100.00;101640.56;5118916;27;20043;-54
2023/02/18 04:59:11;;;;;;;20.17;8.60;;;;;;;9.35;100.00;101637.03;5114049;27;20039;-54
2023/02/18 05:01:41;;;;;;;20.73;9.00;;;;;;;9.32;100.00;101627.50;5112888;27;20047;-53
2023/02/18 05:04:09;;;;;;;18.98;8.30;;;;;;;9.35;100.00;101624.72;5121143;27;20115;-55
2023/02/18 05:06:38;;;;;;;18.45;8.15;;;;;;;9.34;100.00;101616.94;5119374;27;20160;-56
2023/02/18 05:09:07;;;;;;;17.90;7.72;;;;;;;9.33;100.00;101610.84;5114523;27;20055;-55
2023/02/18 05:11:35;;;;;;;17.88;8.27;;;;;;;9.37;100.00;101608.94;5110936;28;20503;-55
2023/02/18 05:14:03;;;;;;;17.10;7.80;;;;;;;9.36;100.00;101609.84;5118848;27;20057;-54
2023/02/18 05:16:32;;;;;;;15.77;7.25;;;;;;;9.35;100.00;101598.47;5119605;27;20036;-55
2023/02/18 05:19:01;;;;;;;15.35;7.78;;;;;;;9.41;100.00;101592.94;5116991;27;20075;-53
2023/02/18 05:21:29;;;;;;;14.68;6.97;;;;;;;9.38;100.00;101600.97;5122944;27;20047;-54
2023/02/18 05:23:57;;;;;;;15.85;6.97;;;;;;;9.39;100.00;101596.56;5108490;28;20039;-54
2023/02/18 05:26:26;;;;;;;13.73;6.78;;;;;;;9.38;100.00;101597.50;5117332;27;20100;-55
2023/02/18 05:28:54;;;;;;;14.43;7.22;;;;;;;9.35;100.00;101595.84;5116565;27;20118;-54
2023/02/18 05:31:22;;;;;;;16.10;7.63;;;;;;;9.35;100.00;101600.28;5119491;27;20138;-55
2023/02/18 05:33:50;;;;;;;15.75;7.15;;;;;;;9.41;100.00;101594.75;5120371;27;20127;-52
2023/02/18 05:36:19;;;;;;;13.27;6.22;;;;;;;9.37;100.00;101595.81;5127855;27;20039;-53
2023/02/18 05:38:48;;;;;;;13.13;6.93;;;;;;;9.39;100.00;101583.44;5119453;27;20032;-53
2023/02/18 05:41:16;;;;;;;15.32;6.60;;;;;;;9.41;100.00;101587.69;5123497;27;20066;-55
2023/02/18 05:46:29;;;;;;;12.98;6.30;;;;;;;9.39;100.00;101581.66;5120655;27;20035;-54
2023/02/18 05:48:58;;;;;;;13.25;6.45;;;;;;;9.37;100.00;101590.56;5131348;27;20545;-54
2023/02/18 05:51:27;;;;;;;15.23;6.35;;;;;;;9.38;100.00;101579.13;5120685;27;20096;-56
2023/02/18 05:53:55;;;;;;;13.02;5.68;;;;;;;9.35;100.00;101581.91;5107961;28;20455;-56
2023/02/18 05:56:23;;;;;;;11.63;5.53;;;;;;;9.32;100.00;101571.56;5119625;27;20118;-54
2023/02/18 05:58:51;;;;;;;12.45;6.18;;;;;;;9.32;100.00;101580.25;5130738;27;20073;-55
2023/02/18 06:01:20;;;;;;;22.27;5.75;;;;;;;9.34;100.00;101569.69;5123611;27;20047;-56
2023/02/18 06:03:48;;;;;;;11.23;5.60;;;;;;;9.34;100.00;101569.69;5119342;27;20043;-56
2023/02/18 06:06:16;;;;;;;11.05;5.43;;;;;;;9.35;100.00;101572.22;5118924;27;20046;-55
2023/02/18 06:08:48;;;;;;;10.77;5.70;;;;;;;9.30;100.00;101564.59;5119818;27;20035;-54
2023/02/18 06:11:16;;;;;;;10.35;5.50;;;;;;;9.29;100.00;101568.13;5110294;27;20494;-56
2023/02/18 06:13:44;;;;;;;11.02;5.03;;;;;;;9.26;100.00;101572.69;5118769;27;20035;-55
2023/02/18 06:16:13;;;;;;;10.13;4.63;;;;;;;9.24;100.00;101571.91;5116693;27;20077;-55
2023/02/18 06:18:41;;;;;;;9.40;4.32;;;;;;;9.29;100.00;101567.28;5116380;27;20468;-54
2023/02/18 06:21:11;;;;;;;9.07;4.57;;;;;;;9.28;100.00;101566.47;5116189;27;20044;-53
2023/02/18 06:23:39;;;;;;;9.05;4.40;;;;;;;9.29;100.00;101567.28;5112318;28;20200;-61
2023/02/18 06:26:09;;;;;;;9.20;4.80;;;;;;;9.29;100.00;101562.03;5114160;28;20088;-61
2023/02/18 06:28:38;;;;;;;9.48;5.63;;;;;;;9.29;100.00;101573.38;5122427;27;20070;-62
2023/02/18 06:31:06;;;;;;;11.50;5.72;;;;;;;9.29;100.00;101572.53;5117659;27;20411;-61
2023/02/18 06:33:34;;;;;;;10.25;5.15;;;;;;;9.28;100.00;101579.59;5118652;27;20048;-61
2023/02/18 06:36:06;;;;;;;9.18;4.95;;;;;;;9.33;100.00;101573.25;5126685;27;20050;-61
2023/02/18 06:38:35;;;;;;;9.32;5.03;;;;;;;9.27;100.00;101584.88;5119803;27;20035;-61
2023/02/18 06:41:04;;;;;;;7.93;4.38;;;;;;;9.24;100.00;101575.41;5117674;27;20073;-61
2023/02/18 06:43:34;;;;;;;9.30;4.43;;;;;;;9.23;100.00;101578.06;5126460;27;20043;-61
2023/02/18 06:46:03;;;;;;;8.48;4.25;;;;;;;9.27;100.00;101580.50;5130582;27;20036;-61
2023/02/18 06:48:31;;;;;;;8.68;4.28;;;;;;;9.24;100.00;101575.41;5130823;28;20045;-61
2023/02/18 06:51:02;;;;;;;8.63;4.50;;;;;;;9.22;100.00;101582.47;5121329;27;20039;-61
2023/02/18 06:53:30;;;;;;;7.53;3.67;;;;;;;9.23;100.00;101581.56;5128292;28;20067;-61
2023/02/18 06:56:01;;;;;;;9.07;4.35;;;;;;;9.22;100.00;101574.59;5117367;28;20032;-61
2023/02/18 06:58:29;;;;;;;9.60;4.55;;;;;;;9.24;100.00;101574.53;5121051;27;20101;-60
2023/02/18 07:00:59;;;;;;;11.38;4.63;;;;;;;9.20;100.00;101588.72;5120446;27;20463;-60
2023/02/18 07:03:27;;;;;;;10.15;4.53;;;;;;;9.18;100.00;101586.19;5133589;27;20437;-60
2023/02/18 07:05:56;;;;;;;10.45;5.07;;;;;;;9.18;100.00;101591.44;5134582;27;20043;-60
2023/02/18 07:08:24;;;;;;;10.70;4.85;;;;;;;9.14;100.00;101582.84;5137326;27;20063;-60
2023/02/18 07:10:52;;;;;;;9.70;4.85;;;;;;;9.18;100.00;101587.97;5138071;27;20058;-60
2023/02/18 07:13:20;;;;;;;11.02;5.50;;;;;;;9.16;100.00;101585.38;5137548;27;20070;-61
2023/02/18 07:15:51;;;;;;;11.05;5.35;;;;;;;9.17;100.00;101581.84;5138069;27;20046;-61
2023/02/18 07:18:20;;;;;;;11.13;5.75;;;;;;;9.16;100.00;101581.91;5138069;27;20043;-61
2023/02/18 07:20:51;;;;;;;11.30;5.32;;;;;;;9.14;100.00;101572.34;5137301;27;20051;-60
2023/02/18 07:23:19;;;;;;;11.25;6.05;;;;;;;9.13;100.00;101572.41;5136790;27;20432;-61
2023/02/18 07:25:47;;;;;;;12.98;6.78;;;;;;;9.12;100.00;101579.44;5136240;27;20058;-61
2023/02/18 07:28:16;;;;;;;11.73;5.90;;;;;;;9.11;100.00;101585.63;5136343;27;20066;-53
2023/02/18 07:30:44;;;;;;;13.43;6.28;;;;;;;9.12;100.00;101586.44;5133275;27;20074;-54
2023/02/18 07:33:13;;;;;;;12.45;6.65;;;;;;;9.08;100.00;101591.03;5133098;27;20090;-55
2023/02/18 07:35:42;;;;;;;14.27;7.20;;;;;;;9.07;100.00;101578.81;5132009;27;20130;-53
2023/02/18 07:38:10;;;;;;;12.95;6.57;;;;;;;9.11;100.00;101580.38;5133352;27;20078;-54
2023/02/18 07:40:39;;;;;;;11.38;6.32;;;;;;;9.09;100.00;101586.59;5132752;27;20649;-55
2023/02/18 07:43:07;;;;;;;15.35;7.30;;;;;;;9.08;100.00;101590.16;5132821;27;20100;-54
2023/02/18 07:45:38;;;;;;;12.90;6.72;;;;;;;9.09;100.00;101586.59;5131949;27;20135;-53
2023/02/18 07:48:06;;;;;;;15.43;7.32;;;;;;;9.11;100.00;101584.78;5124784;27;20402;-54
2023/02/18 07:50:40;;;;;;;15.07;7.65;;;;;;;9.07;100.00;101585.84;5134152;27;20375;-54
2023/02/18 07:53:11;;;;;;;13.93;7.90;;;;;;;9.08;100.00;101590.16;5133418;27;20046;-53
2023/02/18 07:55:51;;;;;;;16.30;7.80;;;;;;;9.08;100.00;101587.53;5133757;27;20051;-54
2023/02/18 07:58:22;;;;;;;17.60;9.13;;;;;;;9.10;100.00;101588.31;5121590;27;20054;-52
2023/02/18 08:00:52;;;;;;;13.95;8.07;;;;;;;9.09;100.00;101584.84;5121015;27;20093;-53
2023/02/18 08:03:22;;;;;;;15.45;7.40;;;;;;;9.07;100.00;101564.84;5128548;27;20127;-61
2023/02/18 08:05:52;;;;;;;13.48;7.18;;;;;;;9.09;100.00;101583.97;5124119;27;20089;-61
2023/02/18 08:08:24;;;;;;;15.90;7.55;;;;;;;9.07;100.00;101568.31;5123170;27;20076;-61
2023/02/18 08:10:58;;;;;;;16.85;7.93;;;;;;;9.07;100.00;101564.84;5123866;27;20031;-61
2023/02/18 08:13:34;;;;;;;13.80;6.40;;;;;;;9.03;100.00;101571.16;5122094;27;20542;-61
2023/02/18 08:16:02;;;;;;;11.63;6.13;;;;;;;9.11;100.00;101588.25;5120691;27;20077;-61
2023/02/18 08:18:30;;;;;;;16.23;6.60;;;;;;;9.11;100.00;101583.00;5134855;27;20062;-61
2023/02/18 08:20:58;;;;;;;14.65;5.90;;;;;;;9.08;100.00;101583.16;5135319;27;20043;-61
2023/02/18 08:23:27;;;;;;;15.57;6.03;;;;;;;9.11;100.00;101582.16;5134772;27;20043;-61
2023/02/18 08:25:56;;;;;;;18.33;5.80;;;;;;;9.12;100.00;101589.06;5134965;27;20047;-61
2023/02/18 08:28:24;;;;;;;16.15;6.97;;;;;;;9.11;100.00;101583.00;5135568;27;20101;-52
2023/02/18 08:30:54;;;;;;;14.13;7.05;;;;;;;9.16;100.00;101597.66;5132887;27;20039;-53
2023/02/18 08:33:23;;;;;;;16.77;8.10;;;;;;;9.15;100.00;101588.97;5133218;27;20066;-61
2023/02/18 08:35:53;;;;;;;19.10;8.55;;;;;;;9.19;100.00;101590.50;5136570;27;20528;-61
2023/02/18 08:38:22;;;;;;;19.02;7.70;;;;;;;9.19;100.00;101585.25;5135720;27;20047;-59
2023/02/18 08:41:02;;;;;;;17.88;8.57;;;;;;;9.16;100.00;101598.50;5132699;27;20039;-60
2023/02/18 08:43:30;;;;;;;16.38;8.70;;;;;;;9.15;100.00;101594.22;5134122;27;20043;-59
2023/02/18 08:46:01;;;;;;;22.13;10.05;;;;;;;9.11;100.00;101592.66;5134777;27;20047;-59
2023/02/18 08:48:30;;;;;;;20.20;10.35;;;;;;;9.13;100.00;101588.16;5134508;27;20054;-60
2023/02/18 08:50:58;;;;;;;21.23;9.68;;;;;;;9.04;100.00;101588.59;5133953;27;20130;-55
2023/02/18 08:53:26;;;;;;;19.23;10.82;;;;;;;9.05;100.00;101592.91;5132065;27;20043;-53
2023/02/18 08:55:56;;;;;;;21.33;9.65;;;;;;;9.04;100.00;101593.84;5141903;27;20118;-54
2023/02/18 08:58:24;;;;;;;19.75;9.73;;;;;;;9.06;100.00;101605.13;5156115;27;20059;-53
2023/02/18 09:00:52;;;;;;;21.73;9.25;;;;;;;9.10;100.00;101614.56;5156423;27;20100;-54
2023/02/18 09:03:20;;;;;;;19.95;9.57;;;;;;;9.01;100.00;101602.69;5156179;27;20043;-53
2023/02/18 09:05:48;;;;;;;20.92;8.90;;;;;;;9.00;100.00;101615.88;5155624;27;20066;-53
2023/02/18 09:08:16;;;;;;;21.13;8.45;;;;;;;9.04;100.00;101601.72;5152477;27;20059;-54
2023/02/18 09:10:45;;;;;;;16.98;7.47;;;;;;;9.01;100.00;101609.72;5149027;27;20520;-53
2023/02/18 09:13:14;;;;;;;19.23;7.55;;;;;;;8.89;100.00;101613.75;5131212;27;20066;-53
2023/02/18 09:15:42;;;;;;;20.02;6.72;;;;;;;8.89;100.00;101606.75;5132833;27;20602;-53
2023/02/18 09:18:10;;;;;;;16.80;6.38;;;;;;;8.81;100.00;101603.63;5132834;27;20680;-54
2023/02/18 09:20:40;;;;;;;20.58;6.18;;;;;;;8.85;100.00;101596.47;5131139;27;20516;-54
2023/02/18 09:23:08;;;;;;;16.60;6.57;;;;;;;8.87;100.00;101600.72;5131786;27;20050;-55
2023/02/18 09:25:39;;;;;;;18.33;6.80;;;;;;;8.84;100.00;101600.88;5130196;27;20039;-55
2023/02/18 09:28:07;;;;;;;15.73;6.05;;;;;;;8.77;100.00;101608.16;5123531;27;20420;-55
2023/02/18 09:30:38;;;;;;;17.85;6.18;;;;;;;8.79;100.00;101608.09;5128564;27;20040;-60
2023/02/18 09:33:07;;;;;;;14.85;5.63;;;;;;;8.71;100.00;101610.22;5121507;27;20043;-60
2023/02/18 09:35:39;;;;;;;17.27;5.80;;;;;;;8.74;100.00;101610.94;5132101;27;20516;-60
2023/02/18 09:38:08;;;;;;;17.73;5.47;;;;;;;8.69;100.00;101605.03;5127352;27;20460;-61
2023/02/18 09:40:40;;;;;;;14.15;5.20;;;;;;;8.72;100.00;101598.81;5132857;27;20043;-61
2023/02/18 09:43:19;;;;;;;19.40;5.60;;;;;;;8.68;100.00;101605.94;5129142;27;20096;-61
2023/02/18 09:45:49;;;;;;;17.80;4.55;;;;;;;8.68;100.00;101607.72;5123151;27;20440;-61
2023/02/18 09:48:17;;;;;;;16.02;4.68;;;;;;;8.66;100.00;101599.06;5131521;27;20043;-61
2023/02/18 09:50:50;;;;;;;14.85;3.97;;;;;;;8.66;100.00;101596.44;5127888;27;20832;-61
2023/02/18 09:53:19;;;;;;;18.00;4.32;;;;;;;8.67;100.00;101600.78;5123803;27;20051;-61
2023/02/18 09:55:48;;;;;;;15.30;3.75;;;;;;;8.65;100.00;101606.09;5123423;27;20502;-61
2023/02/18 09:58:20;;;;;;;11.10;2.88;;;;;;;8.66;100.00;101607.81;5119312;27;20051;-61
2023/02/18 10:00:54;;;;;;;11.27;3.70;;;;;;;8.66;100.00;101620.03;5122103;27;20630;-60
2023/02/18 10:03:25;;;;;;;9.50;3.10;;;;;;;8.67;100.00;101612.13;5122080;27;20047;-61
2023/02/18 10:05:58;;;;;;;12.77;3.13;;;;;;;8.69;100.00;101627.81;5128277;27;20050;-61
2023/02/18 10:08:27;;;;;;;;;;;;;;;8.75;100.00;101617.00;5125681;27;20040;-61
2023/02/18 10:10:58;;;;;;;13.90;3.87;;;;;;;8.76;100.00;101631.84;5112858;28;19919;-61
2023/02/18 10:13:29;;;;;;;13.50;3.40;;;;;;;8.78;100.00;101627.38;5119194;27;20050;-62
2023/02/18 10:15:59;;;;;;;15.65;3.40;;;;;;;8.84;100.00;101626.25;5120008;27;20513;-62
2023/02/18 10:18:30;;;;;;;13.90;3.00;;;;;;;8.80;100.00;101625.53;5119644;27;20100;-62
2023/02/18 10:21:06;;;;;;;17.85;3.35;;;;;;;8.78;100.00;101629.97;5123294;27;20568;-61
2023/02/18 10:23:40;;;;;;;12.90;2.90;;;;;;;8.79;100.00;101632.56;5122672;27;20051;-61
2023/02/18 10:26:14;;;;;;;15.98;3.58;;;;;;;8.84;100.00;101645.47;5123113;27;20475;-61
2023/02/18 10:28:43;;;;;;;13.93;3.40;;;;;;;8.78;100.00;101656.22;5115219;27;20031;-61
2023/02/18 10:31:18;;;;;;;14.57;3.40;;;;;;;8.75;100.00;101646.75;5118855;27;20036;-61
2023/02/18 10:33:53;;;;;;;12.77;3.00;;;;;;;8.72;100.00;101649.47;5118738;27;20198;-60
2023/02/18 10:36:27;;;;;;;15.77;3.67;;;;;;;8.72;100.00;101646.84;5132775;27;20051;-60
2023/02/18 10:39:31;;;;;;;11.25;3.40;;;;;;;8.74;100.00;101654.66;5126347;27;20057;-60
2023/02/18 10:42:13;;;;;;;12.98;2.88;;;;;;;8.77;100.00;101655.38;5103077;28;20063;-60
2023/02/18 10:44:51;;;;;;;15.82;3.40;;;;;;;8.78;100.00;101648.34;5132518;27;20054;-60
2023/02/18 10:47:35;;;;;;;13.40;3.60;;;;;;;8.80;100.00;101659.63;5134409;27;20046;-62
2023/02/18 10:50:11;;;;;;;14.27;3.92;;;;;;;8.79;100.00;101652.69;5134005;27;20055;-60
2023/02/18 10:52:44;;;;;;;16.58;3.75;;;;;;;8.75;100.00;101664.22;5134409;27;20092;-60
2023/02/18 10:55:14;;;;;;;16.05;3.20;;;;;;;8.77;100.00;101650.13;5134281;27;20051;-60
2023/02/18 10:57:47;;;;;;;12.10;2.80;;;;;;;8.76;100.00;101658.06;5134009;28;20047;-60
2023/02/18 11:00:22;;;;;;;13.13;3.67;;;;;;;8.81;100.00;101663.97;5134277;27;20104;-60
2023/02/18 11:03:14;;;;;;;10.63;3.47;;;;;;;8.82;100.00;101657.81;5134122;27;20512;-60
2023/02/18 11:05:43;;;;;;;14.25;3.53;;;;;;;8.78;100.00;101657.09;5133136;27;20047;-61
2023/02/18 11:08:16;;;;;;;13.68;3.42;;;;;;;8.76;100.00;101645.78;5133475;28;20084;-61
2023/02/18 11:10:47;;;;;;;13.95;3.72;;;;;;;8.75;100.00;101662.47;5134030;28;20393;-61
2023/02/18 11:13:17;;;;;;;14.48;3.30;;;;;;;8.82;100.00;101644.69;5133133;27;20055;-61
2023/02/18 11:15:58;;;;;;;14.65;4.07;;;;;;;8.83;100.00;101658.66;5133012;28;20039;-61
2023/02/18 11:18:33;;;;;;;18.00;3.97;;;;;;;8.84;100.00;101661.19;5133851;28;20047;-61
2023/02/18 11:21:04;;;;;;;14.45;3.70;;;;;;;8.89;100.00;101653.97;5134227;28;20100;-61
2023/02/18 11:23:45;;;;;;;15.18;3.92;;;;;;;8.92;100.00;101651.22;5133875;27;20043;-61
2023/02/18 11:26:16;;;;;;;18.83;3.75;;;;;;;8.93;100.00;101645.06;5132405;28;20413;-61
2023/02/18 11:28:46;;;;;;;17.48;3.88;;;;;;;8.97;100.00;101645.75;5133604;27;20441;-61
2023/02/18 11:31:22;;;;;;;16.50;3.80;;;;;;;9.05;100.00;101648.91;5133960;27;20383;-61
2023/02/18 11:33:55;;;;;;;21.33;4.38;;;;;;;9.01;100.00;101652.56;5133343;27;20055;-61
2023/02/18 11:36:27;;;;;;;15.55;3.97;;;;;;;9.03;100.00;101650.72;5133480;28;20051;-61